sensor_id;sensor_type;location;lat;lon;timestamp;P1;durP1;ratioP1;P2;durP2;ratioP2
35530;SDS011;21637;53.352;-6.356;2023-07-13T00:00:02;5.75;;;2.28;;
35530;SDS011;21637;53.352;-6.356;2023-07-13T00:02:33;8.23;;;2.60;;
35530;SDS011;21637;53.352;-6.356;2023-07-13T00:04:59;7.40;;;2.25;;
35530;SDS011;21637;53.352;-6.356;2023-07-13T00:07:25;5.97;;;2.67;;
35530;SDS011;21637;53.352;-6.356;2023-07-13T00:09:52;12.15;;;2.40;;
35530;SDS011;21637;53.352;-6.356;2023-07-13T00:12:28;5.40;;;2.30;;
35530;SDS011;21637;53.352;-6.356;2023-07-13T00:14:56;5.75;;;2.08;;
35530;SDS011;21637;53.352;-6.356;2023-07-13T00:17:26;9.68;;;2.60;;
35530;SDS011;21637;53.352;-6.356;2023-07-13T00:19:54;6.97;;;2.17;;
35530;SDS011;21637;53.352;-6.356;2023-07-13T00:22:21;5.72;;;2.15;;
35530;SDS011;21637;53.352;-6.356;2023-07-13T00:24:49;7.50;;;2.05;;
35530;SDS011;21637;53.352;-6.356;2023-07-13T00:27:16;4.32;;;2.50;;
35530;SDS011;21637;53.352;-6.356;2023-07-13T00:29:42;4.35;;;2.10;;
35530;SDS011;21637;53.352;-6.356;2023-07-13T00:32:08;9.93;;;2.67;;
35530;SDS011;21637;53.352;-6.356;2023-07-13T00:34:36;8.85;;;2.80;;
35530;SDS011;21637;53.352;-6.356;2023-07-13T00:37:02;11.27;;;3.10;;
35530;SDS011;21637;53.352;-6.356;2023-07-13T00:39:31;4.53;;;2.10;;
35530;SDS011;21637;53.352;-6.356;2023-07-13T00:42:01;8.40;;;2.40;;
35530;SDS011;21637;53.352;-6.356;2023-07-13T00:44:28;5.90;;;2.55;;
35530;SDS011;21637;53.352;-6.356;2023-07-13T00:46:54;6.57;;;2.40;;
35530;SDS011;21637;53.352;-6.356;2023-07-13T00:49:22;9.43;;;3.08;;
35530;SDS011;21637;53.352;-6.356;2023-07-13T00:54:32;8.45;;;2.83;;
35530;SDS011;21637;53.352;-6.356;2023-07-13T00:59:29;8.25;;;2.72;;
35530;SDS011;21637;53.352;-6.356;2023-07-13T01:01:55;7.07;;;2.17;;
35530;SDS011;21637;53.352;-6.356;2023-07-13T01:04:23;6.53;;;2.47;;
35530;SDS011;21637;53.352;-6.356;2023-07-13T01:06:49;6.30;;;1.92;;
35530;SDS011;21637;53.352;-6.356;2023-07-13T01:09:15;10.48;;;2.58;;
35530;SDS011;21637;53.352;-6.356;2023-07-13T01:11:41;5.07;;;2.30;;
35530;SDS011;21637;53.352;-6.356;2023-07-13T01:14:08;5.55;;;2.50;;
35530;SDS011;21637;53.352;-6.356;2023-07-13T01:16:35;7.25;;;2.33;;
35530;SDS011;21637;53.352;-6.356;2023-07-13T01:19:03;10.77;;;2.88;;
35530;SDS011;21637;53.352;-6.356;2023-07-13T01:21:34;7.68;;;2.35;;
35530;SDS011;21637;53.352;-6.356;2023-07-13T01:24:00;8.07;;;2.42;;
35530;SDS011;21637;53.352;-6.356;2023-07-13T01:26:27;7.95;;;2.30;;
35530;SDS011;21637;53.352;-6.356;2023-07-13T01:28:53;10.43;;;3.10;;
35530;SDS011;21637;53.352;-6.356;2023-07-13T01:31:21;10.98;;;3.15;;
35530;SDS011;21637;53.352;-6.356;2023-07-13T01:33:47;10.00;;;2.30;;
35530;SDS011;21637;53.352;-6.356;2023-07-13T01:36:13;8.15;;;2.83;;
35530;SDS011;21637;53.352;-6.356;2023-07-13T01:38:38;11.40;;;2.90;;
35530;SDS011;21637;53.352;-6.356;2023-07-13T01:41:04;8.40;;;2.53;;
35530;SDS011;21637;53.352;-6.356;2023-07-13T01:43:30;5.90;;;2.33;;
35530;SDS011;21637;53.352;-6.356;2023-07-13T01:45:57;7.93;;;2.35;;
35530;SDS011;21637;53.352;-6.356;2023-07-13T01:48:23;8.70;;;2.85;;
35530;SDS011;21637;53.352;-6.356;2023-07-13T01:50:49;9.65;;;2.35;;
35530;SDS011;21637;53.352;-6.356;2023-07-13T01:53:15;7.85;;;2.60;;
35530;SDS011;21637;53.352;-6.356;2023-07-13T01:55:41;10.65;;;2.60;;
35530;SDS011;21637;53.352;-6.356;2023-07-13T01:58:07;11.52;;;3.10;;
35530;SDS011;21637;53.352;-6.356;2023-07-13T02:00:33;7.80;;;2.50;;
35530;SDS011;21637;53.352;-6.356;2023-07-13T02:02:59;4.57;;;2.20;;
35530;SDS011;21637;53.352;-6.356;2023-07-13T02:05:25;10.10;;;2.60;;
35530;SDS011;21637;53.352;-6.356;2023-07-13T02:07:50;8.23;;;2.38;;
35530;SDS011;21637;53.352;-6.356;2023-07-13T02:10:17;7.45;;;2.55;;
35530;SDS011;21637;53.352;-6.356;2023-07-13T02:12:43;6.60;;;2.50;;
35530;SDS011;21637;53.352;-6.356;2023-07-13T02:15:10;7.97;;;2.78;;
35530;SDS011;21637;53.352;-6.356;2023-07-13T02:17:36;5.63;;;2.72;;
35530;SDS011;21637;53.352;-6.356;2023-07-13T02:20:02;7.75;;;2.53;;
35530;SDS011;21637;53.352;-6.356;2023-07-13T02:22:29;5.50;;;2.70;;
35530;SDS011;21637;53.352;-6.356;2023-07-13T02:24:55;6.72;;;2.67;;
35530;SDS011;21637;53.352;-6.356;2023-07-13T02:27:21;5.93;;;2.60;;
35530;SDS011;21637;53.352;-6.356;2023-07-13T02:29:47;8.95;;;2.40;;
35530;SDS011;21637;53.352;-6.356;2023-07-13T02:32:12;8.32;;;2.90;;
35530;SDS011;21637;53.352;-6.356;2023-07-13T02:34:40;7.15;;;2.67;;
35530;SDS011;21637;53.352;-6.356;2023-07-13T02:37:05;9.23;;;2.42;;
35530;SDS011;21637;53.352;-6.356;2023-07-13T02:39:32;7.07;;;2.72;;
35530;SDS011;21637;53.352;-6.356;2023-07-13T02:41:58;11.10;;;2.40;;
35530;SDS011;21637;53.352;-6.356;2023-07-13T02:44:25;5.22;;;2.50;;
35530;SDS011;21637;53.352;-6.356;2023-07-13T02:46:51;10.38;;;2.72;;
35530;SDS011;21637;53.352;-6.356;2023-07-13T02:49:16;6.38;;;2.70;;
35530;SDS011;21637;53.352;-6.356;2023-07-13T02:51:42;8.07;;;2.42;;
35530;SDS011;21637;53.352;-6.356;2023-07-13T02:54:08;8.30;;;2.50;;
35530;SDS011;21637;53.352;-6.356;2023-07-13T02:56:35;6.53;;;2.60;;
35530;SDS011;21637;53.352;-6.356;2023-07-13T02:59:00;7.95;;;2.60;;
35530;SDS011;21637;53.352;-6.356;2023-07-13T03:01:27;11.85;;;2.90;;
35530;SDS011;21637;53.352;-6.356;2023-07-13T03:03:53;9.40;;;2.65;;
35530;SDS011;21637;53.352;-6.356;2023-07-13T03:06:19;5.88;;;1.85;;
35530;SDS011;21637;53.352;-6.356;2023-07-13T03:08:46;6.68;;;2.50;;
35530;SDS011;21637;53.352;-6.356;2023-07-13T03:11:15;6.28;;;2.50;;
35530;SDS011;21637;53.352;-6.356;2023-07-13T03:13:43;6.05;;;2.75;;
35530;SDS011;21637;53.352;-6.356;2023-07-13T03:16:10;7.45;;;2.22;;
35530;SDS011;21637;53.352;-6.356;2023-07-13T03:18:36;4.82;;;1.98;;
35530;SDS011;21637;53.352;-6.356;2023-07-13T03:21:03;5.55;;;2.22;;
35530;SDS011;21637;53.352;-6.356;2023-07-13T03:23:29;5.93;;;2.38;;
35530;SDS011;21637;53.352;-6.356;2023-07-13T03:28:28;9.33;;;2.83;;
35530;SDS011;21637;53.352;-6.356;2023-07-13T03:31:00;7.45;;;2.33;;
35530;SDS011;21637;53.352;-6.356;2023-07-13T03:33:30;7.00;;;2.30;;
35530;SDS011;21637;53.352;-6.356;2023-07-13T03:35:56;9.00;;;2.33;;
35530;SDS011;21637;53.352;-6.356;2023-07-13T03:38:22;5.70;;;2.00;;
35530;SDS011;21637;53.352;-6.356;2023-07-13T03:40:48;5.70;;;1.92;;
35530;SDS011;21637;53.352;-6.356;2023-07-13T03:43:14;8.63;;;2.35;;
35530;SDS011;21637;53.352;-6.356;2023-07-13T03:45:40;6.82;;;2.30;;
35530;SDS011;21637;53.352;-6.356;2023-07-13T03:48:06;8.82;;;2.67;;
35530;SDS011;21637;53.352;-6.356;2023-07-13T03:50:31;9.15;;;3.20;;
35530;SDS011;21637;53.352;-6.356;2023-07-13T03:52:58;7.13;;;2.50;;
35530;SDS011;21637;53.352;-6.356;2023-07-13T03:55:24;6.30;;;2.80;;
35530;SDS011;21637;53.352;-6.356;2023-07-13T03:57:57;10.95;;;3.25;;
35530;SDS011;21637;53.352;-6.356;2023-07-13T04:00:43;9.30;;;3.30;;
35530;SDS011;21637;53.352;-6.356;2023-07-13T04:03:09;6.65;;;2.60;;
35530;SDS011;21637;53.352;-6.356;2023-07-13T04:05:34;7.18;;;2.70;;
35530;SDS011;21637;53.352;-6.356;2023-07-13T04:08:01;8.18;;;2.45;;
35530;SDS011;21637;53.352;-6.356;2023-07-13T04:10:27;10.15;;;2.70;;
35530;SDS011;21637;53.352;-6.356;2023-07-13T04:12:53;8.70;;;2.42;;
35530;SDS011;21637;53.352;-6.356;2023-07-13T04:15:19;7.45;;;2.45;;
35530;SDS011;21637;53.352;-6.356;2023-07-13T04:17:44;7.63;;;2.53;;
35530;SDS011;21637;53.352;-6.356;2023-07-13T04:20:10;6.30;;;2.15;;
35530;SDS011;21637;53.352;-6.356;2023-07-13T04:22:36;7.68;;;2.45;;
35530;SDS011;21637;53.352;-6.356;2023-07-13T04:25:01;6.63;;;2.63;;
35530;SDS011;21637;53.352;-6.356;2023-07-13T04:27:27;9.45;;;2.65;;
35530;SDS011;21637;53.352;-6.356;2023-07-13T04:29:53;7.82;;;2.55;;
35530;SDS011;21637;53.352;-6.356;2023-07-13T04:32:19;7.55;;;2.38;;
35530;SDS011;21637;53.352;-6.356;2023-07-13T04:34:45;10.45;;;2.72;;
35530;SDS011;21637;53.352;-6.356;2023-07-13T04:37:10;9.73;;;3.00;;
35530;SDS011;21637;53.352;-6.356;2023-07-13T04:39:36;6.28;;;2.28;;
35530;SDS011;21637;53.352;-6.356;2023-07-13T04:42:02;8.00;;;2.92;;
35530;SDS011;21637;53.352;-6.356;2023-07-13T04:44:29;4.90;;;2.42;;
35530;SDS011;21637;53.352;-6.356;2023-07-13T04:46:54;3.83;;;2.17;;
35530;SDS011;21637;53.352;-6.356;2023-07-13T04:49:20;7.90;;;2.40;;
35530;SDS011;21637;53.352;-6.356;2023-07-13T04:51:46;9.73;;;2.85;;
35530;SDS011;21637;53.352;-6.356;2023-07-13T04:54:11;8.90;;;2.95;;
35530;SDS011;21637;53.352;-6.356;2023-07-13T04:56:37;10.27;;;2.70;;
35530;SDS011;21637;53.352;-6.356;2023-07-13T04:59:03;7.10;;;2.90;;
35530;SDS011;21637;53.352;-6.356;2023-07-13T05:01:28;9.93;;;3.03;;
35530;SDS011;21637;53.352;-6.356;2023-07-13T05:03:54;7.00;;;2.47;;
35530;SDS011;21637;53.352;-6.356;2023-07-13T05:06:22;8.13;;;3.05;;
35530;SDS011;21637;53.352;-6.356;2023-07-13T05:08:48;9.57;;;2.92;;
35530;SDS011;21637;53.352;-6.356;2023-07-13T05:11:14;7.75;;;2.47;;
35530;SDS011;21637;53.352;-6.356;2023-07-13T05:13:39;9.27;;;3.58;;
35530;SDS011;21637;53.352;-6.356;2023-07-13T05:16:05;6.40;;;2.55;;
35530;SDS011;21637;53.352;-6.356;2023-07-13T05:18:32;9.38;;;2.80;;
35530;SDS011;21637;53.352;-6.356;2023-07-13T05:21:00;8.75;;;2.53;;
35530;SDS011;21637;53.352;-6.356;2023-07-13T05:23:34;7.60;;;2.70;;
35530;SDS011;21637;53.352;-6.356;2023-07-13T05:26:01;10.32;;;2.58;;
35530;SDS011;21637;53.352;-6.356;2023-07-13T05:28:27;11.93;;;2.63;;
35530;SDS011;21637;53.352;-6.356;2023-07-13T05:30:56;9.48;;;2.30;;
35530;SDS011;21637;53.352;-6.356;2023-07-13T05:33:22;10.25;;;2.42;;
35530;SDS011;21637;53.352;-6.356;2023-07-13T05:35:48;6.95;;;2.22;;
35530;SDS011;21637;53.352;-6.356;2023-07-13T05:38:14;10.63;;;2.40;;
35530;SDS011;21637;53.352;-6.356;2023-07-13T05:40:42;11.38;;;2.55;;
35530;SDS011;21637;53.352;-6.356;2023-07-13T05:43:11;10.60;;;2.83;;
35530;SDS011;21637;53.352;-6.356;2023-07-13T05:45:38;9.23;;;2.53;;
35530;SDS011;21637;53.352;-6.356;2023-07-13T05:48:04;6.70;;;2.55;;
35530;SDS011;21637;53.352;-6.356;2023-07-13T05:50:30;8.05;;;2.40;;
35530;SDS011;21637;53.352;-6.356;2023-07-13T05:52:56;5.75;;;2.00;;
35530;SDS011;21637;53.352;-6.356;2023-07-13T05:55:22;9.95;;;2.45;;
35530;SDS011;21637;53.352;-6.356;2023-07-13T05:57:48;8.70;;;2.40;;
35530;SDS011;21637;53.352;-6.356;2023-07-13T06:00:14;6.50;;;2.00;;
35530;SDS011;21637;53.352;-6.356;2023-07-13T06:02:40;13.38;;;2.85;;
35530;SDS011;21637;53.352;-6.356;2023-07-13T06:05:06;7.63;;;2.42;;
35530;SDS011;21637;53.352;-6.356;2023-07-13T06:07:32;8.48;;;2.75;;
35530;SDS011;21637;53.352;-6.356;2023-07-13T06:09:58;13.23;;;3.10;;
35530;SDS011;21637;53.352;-6.356;2023-07-13T06:12:24;7.07;;;2.60;;
35530;SDS011;21637;53.352;-6.356;2023-07-13T06:14:50;7.95;;;2.67;;
35530;SDS011;21637;53.352;-6.356;2023-07-13T06:17:16;9.05;;;2.67;;
35530;SDS011;21637;53.352;-6.356;2023-07-13T06:19:42;9.25;;;2.50;;
35530;SDS011;21637;53.352;-6.356;2023-07-13T06:22:09;8.35;;;2.45;;
35530;SDS011;21637;53.352;-6.356;2023-07-13T06:24:34;8.82;;;2.67;;
35530;SDS011;21637;53.352;-6.356;2023-07-13T06:27:00;9.75;;;2.65;;
35530;SDS011;21637;53.352;-6.356;2023-07-13T06:29:26;8.23;;;2.42;;
35530;SDS011;21637;53.352;-6.356;2023-07-13T06:31:52;7.32;;;2.28;;
35530;SDS011;21637;53.352;-6.356;2023-07-13T06:34:17;8.95;;;2.03;;
35530;SDS011;21637;53.352;-6.356;2023-07-13T06:36:44;9.40;;;3.05;;
35530;SDS011;21637;53.352;-6.356;2023-07-13T06:39:09;8.48;;;2.38;;
35530;SDS011;21637;53.352;-6.356;2023-07-13T06:41:35;5.25;;;1.92;;
35530;SDS011;21637;53.352;-6.356;2023-07-13T06:44:01;9.95;;;2.42;;
35530;SDS011;21637;53.352;-6.356;2023-07-13T06:46:28;9.10;;;2.13;;
35530;SDS011;21637;53.352;-6.356;2023-07-13T06:48:54;8.15;;;2.33;;
35530;SDS011;21637;53.352;-6.356;2023-07-13T06:51:20;5.40;;;2.58;;
35530;SDS011;21637;53.352;-6.356;2023-07-13T06:53:46;5.78;;;2.25;;
35530;SDS011;21637;53.352;-6.356;2023-07-13T06:56:12;5.82;;;2.00;;
35530;SDS011;21637;53.352;-6.356;2023-07-13T06:58:38;12.00;;;2.25;;
35530;SDS011;21637;53.352;-6.356;2023-07-13T07:01:04;6.68;;;2.10;;
35530;SDS011;21637;53.352;-6.356;2023-07-13T07:03:30;8.05;;;2.03;;
35530;SDS011;21637;53.352;-6.356;2023-07-13T07:06:06;4.10;;;1.77;;
35530;SDS011;21637;53.352;-6.356;2023-07-13T07:08:40;5.38;;;2.50;;
35530;SDS011;21637;53.352;-6.356;2023-07-13T07:11:07;6.65;;;2.40;;
35530;SDS011;21637;53.352;-6.356;2023-07-13T07:13:35;6.97;;;2.28;;
35530;SDS011;21637;53.352;-6.356;2023-07-13T07:16:00;8.00;;;2.10;;
35530;SDS011;21637;53.352;-6.356;2023-07-13T07:18:26;6.55;;;2.17;;
35530;SDS011;21637;53.352;-6.356;2023-07-13T07:20:52;8.52;;;2.15;;
35530;SDS011;21637;53.352;-6.356;2023-07-13T07:23:17;7.95;;;2.45;;
35530;SDS011;21637;53.352;-6.356;2023-07-13T07:25:44;6.18;;;2.38;;
35530;SDS011;21637;53.352;-6.356;2023-07-13T07:28:11;6.95;;;2.03;;
35530;SDS011;21637;53.352;-6.356;2023-07-13T07:30:41;9.18;;;2.47;;
35530;SDS011;21637;53.352;-6.356;2023-07-13T07:33:08;8.30;;;2.28;;
35530;SDS011;21637;53.352;-6.356;2023-07-13T07:35:34;7.78;;;1.95;;
35530;SDS011;21637;53.352;-6.356;2023-07-13T07:38:00;6.35;;;2.17;;
35530;SDS011;21637;53.352;-6.356;2023-07-13T07:40:25;5.40;;;1.88;;
35530;SDS011;21637;53.352;-6.356;2023-07-13T07:42:51;5.43;;;1.80;;
35530;SDS011;21637;53.352;-6.356;2023-07-13T07:45:18;4.07;;;2.13;;
35530;SDS011;21637;53.352;-6.356;2023-07-13T07:47:44;2.85;;;1.80;;
35530;SDS011;21637;53.352;-6.356;2023-07-13T07:50:10;8.48;;;1.77;;
35530;SDS011;21637;53.352;-6.356;2023-07-13T07:52:36;4.93;;;1.83;;
35530;SDS011;21637;53.352;-6.356;2023-07-13T07:55:01;5.68;;;1.67;;
35530;SDS011;21637;53.352;-6.356;2023-07-13T07:57:28;2.92;;;2.17;;
35530;SDS011;21637;53.352;-6.356;2023-07-13T07:59:54;3.28;;;1.60;;
35530;SDS011;21637;53.352;-6.356;2023-07-13T08:02:20;3.17;;;1.60;;
35530;SDS011;21637;53.352;-6.356;2023-07-13T08:04:45;3.25;;;1.48;;
35530;SDS011;21637;53.352;-6.356;2023-07-13T08:07:11;2.97;;;1.60;;
35530;SDS011;21637;53.352;-6.356;2023-07-13T08:09:37;4.30;;;1.75;;
35530;SDS011;21637;53.352;-6.356;2023-07-13T08:12:02;4.97;;;1.80;;
35530;SDS011;21637;53.352;-6.356;2023-07-13T08:14:28;6.25;;;2.10;;
35530;SDS011;21637;53.352;-6.356;2023-07-13T08:16:54;4.28;;;1.80;;
35530;SDS011;21637;53.352;-6.356;2023-07-13T08:19:20;3.22;;;1.65;;
35530;SDS011;21637;53.352;-6.356;2023-07-13T08:21:45;4.32;;;2.00;;
35530;SDS011;21637;53.352;-6.356;2023-07-13T08:24:13;5.47;;;1.80;;
35530;SDS011;21637;53.352;-6.356;2023-07-13T08:26:39;4.13;;;2.00;;
35530;SDS011;21637;53.352;-6.356;2023-07-13T08:29:05;5.32;;;2.17;;
35530;SDS011;21637;53.352;-6.356;2023-07-13T08:31:31;4.13;;;1.60;;
35530;SDS011;21637;53.352;-6.356;2023-07-13T08:33:56;2.85;;;1.50;;
35530;SDS011;21637;53.352;-6.356;2023-07-13T08:36:22;2.60;;;2.10;;
35530;SDS011;21637;53.352;-6.356;2023-07-13T08:38:48;3.45;;;1.70;;
35530;SDS011;21637;53.352;-6.356;2023-07-13T08:41:17;3.50;;;1.65;;
35530;SDS011;21637;53.352;-6.356;2023-07-13T08:43:47;4.88;;;1.60;;
35530;SDS011;21637;53.352;-6.356;2023-07-13T08:48:50;4.18;;;1.50;;
35530;SDS011;21637;53.352;-6.356;2023-07-13T08:51:28;6.68;;;1.63;;
35530;SDS011;21637;53.352;-6.356;2023-07-13T08:56:54;5.95;;;1.40;;
35530;SDS011;21637;53.352;-6.356;2023-07-13T08:59:23;3.92;;;1.73;;
35530;SDS011;21637;53.352;-6.356;2023-07-13T09:04:33;2.97;;;1.92;;
35530;SDS011;21637;53.352;-6.356;2023-07-13T09:07:11;3.55;;;1.60;;
35530;SDS011;21637;53.352;-6.356;2023-07-13T09:10:01;2.00;;;1.33;;
35530;SDS011;21637;53.352;-6.356;2023-07-13T09:12:35;4.53;;;1.50;;
35530;SDS011;21637;53.352;-6.356;2023-07-13T09:15:18;2.75;;;1.50;;
35530;SDS011;21637;53.352;-6.356;2023-07-13T09:17:48;3.03;;;1.73;;
35530;SDS011;21637;53.352;-6.356;2023-07-13T09:20:26;2.42;;;1.48;;
35530;SDS011;21637;53.352;-6.356;2023-07-13T09:23:07;3.40;;;1.70;;
35530;SDS011;21637;53.352;-6.356;2023-07-13T09:25:42;2.60;;;1.70;;
35530;SDS011;21637;53.352;-6.356;2023-07-13T09:28:11;2.55;;;1.40;;
35530;SDS011;21637;53.352;-6.356;2023-07-13T09:31:03;3.63;;;1.70;;
35530;SDS011;21637;53.352;-6.356;2023-07-13T09:33:32;3.92;;;1.40;;
35530;SDS011;21637;53.352;-6.356;2023-07-13T09:36:00;2.03;;;1.30;;
35530;SDS011;21637;53.352;-6.356;2023-07-13T09:38:27;2.78;;;1.23;;
35530;SDS011;21637;53.352;-6.356;2023-07-13T09:46:37;2.17;;;1.65;;
35530;SDS011;21637;53.352;-6.356;2023-07-13T09:49:04;4.97;;;1.63;;
35530;SDS011;21637;53.352;-6.356;2023-07-13T09:51:30;2.80;;;1.90;;
35530;SDS011;21637;53.352;-6.356;2023-07-13T09:53:56;3.30;;;1.40;;
35530;SDS011;21637;53.352;-6.356;2023-07-13T09:56:23;5.07;;;1.60;;
35530;SDS011;21637;53.352;-6.356;2023-07-13T09:58:51;2.42;;;1.63;;
35530;SDS011;21637;53.352;-6.356;2023-07-13T10:01:30;3.25;;;1.42;;
35530;SDS011;21637;53.352;-6.356;2023-07-13T10:04:10;2.28;;;1.40;;
35530;SDS011;21637;53.352;-6.356;2023-07-13T10:06:38;3.33;;;2.00;;
35530;SDS011;21637;53.352;-6.356;2023-07-13T10:09:08;3.75;;;1.65;;
35530;SDS011;21637;53.352;-6.356;2023-07-13T10:11:35;4.90;;;1.50;;
35530;SDS011;21637;53.352;-6.356;2023-07-13T10:14:03;3.33;;;1.70;;
35530;SDS011;21637;53.352;-6.356;2023-07-13T10:16:37;3.00;;;1.48;;
35530;SDS011;21637;53.352;-6.356;2023-07-13T10:24:41;4.07;;;1.80;;
35530;SDS011;21637;53.352;-6.356;2023-07-13T10:27:20;5.32;;;1.30;;
35530;SDS011;21637;53.352;-6.356;2023-07-13T10:32:38;3.28;;;1.23;;
35530;SDS011;21637;53.352;-6.356;2023-07-13T10:35:05;5.15;;;1.65;;
35530;SDS011;21637;53.352;-6.356;2023-07-13T10:40:16;1.85;;;1.30;;
35530;SDS011;21637;53.352;-6.356;2023-07-13T10:42:46;1.38;;;1.20;;
35530;SDS011;21637;53.352;-6.356;2023-07-13T10:45:15;4.00;;;1.33;;
35530;SDS011;21637;53.352;-6.356;2023-07-13T10:47:44;2.72;;;1.67;;
35530;SDS011;21637;53.352;-6.356;2023-07-13T10:50:15;1.45;;;1.30;;
35530;SDS011;21637;53.352;-6.356;2023-07-13T10:52:49;2.28;;;1.48;;
35530;SDS011;21637;53.352;-6.356;2023-07-13T10:55:36;2.92;;;1.40;;
35530;SDS011;21637;53.352;-6.356;2023-07-13T11:00:44;3.25;;;1.77;;
35530;SDS011;21637;53.352;-6.356;2023-07-13T11:03:14;3.22;;;1.40;;
35530;SDS011;21637;53.352;-6.356;2023-07-13T11:05:43;2.58;;;1.30;;
35530;SDS011;21637;53.352;-6.356;2023-07-13T11:14:25;4.78;;;1.67;;
35530;SDS011;21637;53.352;-6.356;2023-07-13T11:18:50;6.55;;;1.60;;
35530;SDS011;21637;53.352;-6.356;2023-07-13T11:21:28;4.15;;;1.27;;
35530;SDS011;21637;53.352;-6.356;2023-07-13T11:24:04;3.45;;;1.60;;
35530;SDS011;21637;53.352;-6.356;2023-07-13T11:31:51;3.05;;;1.80;;
35530;SDS011;21637;53.352;-6.356;2023-07-13T11:34:33;3.67;;;2.20;;
35530;SDS011;21637;53.352;-6.356;2023-07-13T11:37:01;3.45;;;1.70;;
35530;SDS011;21637;53.352;-6.356;2023-07-13T11:39:29;2.78;;;1.95;;
35530;SDS011;21637;53.352;-6.356;2023-07-13T11:42:04;4.13;;;1.90;;
35530;SDS011;21637;53.352;-6.356;2023-07-13T11:44:34;1.52;;;1.40;;
35530;SDS011;21637;53.352;-6.356;2023-07-13T11:47:01;4.53;;;1.63;;
35530;SDS011;21637;53.352;-6.356;2023-07-13T11:49:40;3.80;;;1.50;;
35530;SDS011;21637;53.352;-6.356;2023-07-13T11:52:15;3.55;;;1.65;;
35530;SDS011;21637;53.352;-6.356;2023-07-13T11:54:51;2.23;;;1.63;;
35530;SDS011;21637;53.352;-6.356;2023-07-13T11:57:30;3.45;;;1.80;;
35530;SDS011;21637;53.352;-6.356;2023-07-13T12:00:00;2.17;;;1.40;;
35530;SDS011;21637;53.352;-6.356;2023-07-13T12:05:03;3.45;;;1.73;;
35530;SDS011;21637;53.352;-6.356;2023-07-13T12:07:32;4.20;;;1.63;;
35530;SDS011;21637;53.352;-6.356;2023-07-13T12:10:02;3.92;;;2.00;;
35530;SDS011;21637;53.352;-6.356;2023-07-13T12:12:29;4.65;;;2.22;;
35530;SDS011;21637;53.352;-6.356;2023-07-13T12:14:55;4.30;;;1.98;;
35530;SDS011;21637;53.352;-6.356;2023-07-13T12:17:22;2.60;;;1.70;;
35530;SDS011;21637;53.352;-6.356;2023-07-13T12:19:50;7.82;;;2.20;;
35530;SDS011;21637;53.352;-6.356;2023-07-13T12:22:18;3.70;;;2.10;;
35530;SDS011;21637;53.352;-6.356;2023-07-13T12:24:45;2.17;;;1.70;;
35530;SDS011;21637;53.352;-6.356;2023-07-13T12:27:23;3.05;;;1.80;;
35530;SDS011;21637;53.352;-6.356;2023-07-13T12:30:01;5.22;;;2.22;;
35530;SDS011;21637;53.352;-6.356;2023-07-13T12:32:30;2.88;;;1.73;;
35530;SDS011;21637;53.352;-6.356;2023-07-13T12:34:57;4.47;;;2.10;;
35530;SDS011;21637;53.352;-6.356;2023-07-13T12:37:34;3.08;;;2.17;;
35530;SDS011;21637;53.352;-6.356;2023-07-13T12:40:00;5.82;;;2.10;;
35530;SDS011;21637;53.352;-6.356;2023-07-13T12:42:31;2.63;;;1.85;;
35530;SDS011;21637;53.352;-6.356;2023-07-13T12:45:02;5.35;;;2.00;;
35530;SDS011;21637;53.352;-6.356;2023-07-13T12:47:49;2.45;;;2.08;;
35530;SDS011;21637;53.352;-6.356;2023-07-13T12:50:19;3.22;;;1.90;;
35530;SDS011;21637;53.352;-6.356;2023-07-13T12:52:50;4.78;;;2.20;;
35530;SDS011;21637;53.352;-6.356;2023-07-13T12:55:18;6.53;;;1.90;;
35530;SDS011;21637;53.352;-6.356;2023-07-13T12:57:50;4.65;;;2.13;;
35530;SDS011;21637;53.352;-6.356;2023-07-13T13:03:22;3.80;;;1.88;;
35530;SDS011;21637;53.352;-6.356;2023-07-13T13:05:47;2.80;;;1.92;;
35530;SDS011;21637;53.352;-6.356;2023-07-13T13:08:14;3.42;;;1.90;;
35530;SDS011;21637;53.352;-6.356;2023-07-13T13:10:40;3.42;;;1.75;;
35530;SDS011;21637;53.352;-6.356;2023-07-13T13:13:06;3.40;;;2.22;;
35530;SDS011;21637;53.352;-6.356;2023-07-13T13:15:31;5.55;;;1.90;;
35530;SDS011;21637;53.352;-6.356;2023-07-13T13:17:57;2.08;;;1.63;;
35530;SDS011;21637;53.352;-6.356;2023-07-13T13:20:24;3.88;;;2.10;;
35530;SDS011;21637;53.352;-6.356;2023-07-13T13:22:51;4.20;;;2.25;;
35530;SDS011;21637;53.352;-6.356;2023-07-13T13:25:17;5.60;;;2.38;;
35530;SDS011;21637;53.352;-6.356;2023-07-13T13:27:44;4.28;;;2.22;;
35530;SDS011;21637;53.352;-6.356;2023-07-13T13:30:14;3.25;;;1.83;;
35530;SDS011;21637;53.352;-6.356;2023-07-13T13:32:42;3.10;;;1.75;;
35530;SDS011;21637;53.352;-6.356;2023-07-13T13:35:15;4.30;;;2.00;;
35530;SDS011;21637;53.352;-6.356;2023-07-13T13:37:43;3.35;;;1.92;;
35530;SDS011;21637;53.352;-6.356;2023-07-13T13:40:17;3.88;;;1.90;;
35530;SDS011;21637;53.352;-6.356;2023-07-13T13:42:45;3.78;;;2.05;;
35530;SDS011;21637;53.352;-6.356;2023-07-13T13:45:11;4.25;;;2.10;;
35530;SDS011;21637;53.352;-6.356;2023-07-13T13:47:38;3.08;;;1.98;;
35530;SDS011;21637;53.352;-6.356;2023-07-13T13:50:15;4.45;;;2.25;;
35530;SDS011;21637;53.352;-6.356;2023-07-13T13:52:43;3.65;;;2.25;;
35530;SDS011;21637;53.352;-6.356;2023-07-13T13:55:15;4.00;;;2.00;;
35530;SDS011;21637;53.352;-6.356;2023-07-13T13:57:46;3.78;;;2.03;;
35530;SDS011;21637;53.352;-6.356;2023-07-13T14:00:13;3.22;;;1.98;;
35530;SDS011;21637;53.352;-6.356;2023-07-13T14:02:42;4.32;;;2.13;;
35530;SDS011;21637;53.352;-6.356;2023-07-13T14:05:18;2.88;;;1.80;;
35530;SDS011;21637;53.352;-6.356;2023-07-13T14:07:47;4.33;;;1.77;;
35530;SDS011;21637;53.352;-6.356;2023-07-13T14:10:15;4.63;;;2.00;;
35530;SDS011;21637;53.352;-6.356;2023-07-13T14:12:43;3.72;;;1.90;;
35530;SDS011;21637;53.352;-6.356;2023-07-13T14:15:20;2.55;;;1.70;;
35530;SDS011;21637;53.352;-6.356;2023-07-13T14:17:48;3.53;;;1.70;;
35530;SDS011;21637;53.352;-6.356;2023-07-13T14:20:15;4.28;;;2.40;;
35530;SDS011;21637;53.352;-6.356;2023-07-13T14:22:42;5.10;;;1.73;;
35530;SDS011;21637;53.352;-6.356;2023-07-13T14:25:14;2.90;;;1.77;;
35530;SDS011;21637;53.352;-6.356;2023-07-13T14:27:40;1.92;;;1.60;;
35530;SDS011;21637;53.352;-6.356;2023-07-13T14:30:14;2.75;;;1.60;;
35530;SDS011;21637;53.352;-6.356;2023-07-13T14:32:41;5.03;;;1.65;;
35530;SDS011;21637;53.352;-6.356;2023-07-13T14:35:10;4.10;;;1.70;;
35530;SDS011;21637;53.352;-6.356;2023-07-13T14:37:39;4.13;;;2.28;;
35530;SDS011;21637;53.352;-6.356;2023-07-13T14:43:01;5.28;;;1.90;;
35530;SDS011;21637;53.352;-6.356;2023-07-13T14:45:27;3.03;;;1.70;;
35530;SDS011;21637;53.352;-6.356;2023-07-13T14:47:55;2.97;;;1.80;;
35530;SDS011;21637;53.352;-6.356;2023-07-13T14:50:23;3.60;;;1.50;;
35530;SDS011;21637;53.352;-6.356;2023-07-13T14:52:54;3.65;;;2.00;;
35530;SDS011;21637;53.352;-6.356;2023-07-13T14:55:19;2.92;;;1.85;;
35530;SDS011;21637;53.352;-6.356;2023-07-13T14:57:46;3.58;;;1.40;;
35530;SDS011;21637;53.352;-6.356;2023-07-13T15:00:21;1.75;;;1.60;;
35530;SDS011;21637;53.352;-6.356;2023-07-13T15:02:50;2.10;;;1.48;;
35530;SDS011;21637;53.352;-6.356;2023-07-13T15:05:29;2.05;;;1.20;;
35530;SDS011;21637;53.352;-6.356;2023-07-13T15:07:57;3.38;;;1.58;;
35530;SDS011;21637;53.352;-6.356;2023-07-13T15:10:26;6.63;;;1.95;;
35530;SDS011;21637;53.352;-6.356;2023-07-13T15:13:01;5.22;;;1.50;;
35530;SDS011;21637;53.352;-6.356;2023-07-13T15:15:43;2.17;;;1.40;;
35530;SDS011;21637;53.352;-6.356;2023-07-13T15:18:14;1.92;;;1.42;;
35530;SDS011;21637;53.352;-6.356;2023-07-13T15:20:43;2.28;;;1.38;;
35530;SDS011;21637;53.352;-6.356;2023-07-13T15:23:10;3.67;;;1.63;;
35530;SDS011;21637;53.352;-6.356;2023-07-13T15:25:37;1.90;;;1.50;;
35530;SDS011;21637;53.352;-6.356;2023-07-13T15:28:03;2.75;;;1.85;;
35530;SDS011;21637;53.352;-6.356;2023-07-13T15:30:30;3.65;;;1.40;;
35530;SDS011;21637;53.352;-6.356;2023-07-13T15:33:00;1.80;;;1.45;;
35530;SDS011;21637;53.352;-6.356;2023-07-13T15:35:34;3.40;;;1.67;;